createdAt,value
2023-04-03T00:00:46.476Z,48.29
2023-04-03T00:01:46.501Z,50.23
2023-04-03T00:02:46.629Z,53.99
2023-04-03T00:03:46.552Z,53.82
2023-04-03T00:04:46.954Z,54.32
2023-04-03T00:05:46.491Z,48.12
2023-04-03T00:06:46.410Z,48.90
2023-04-03T00:07:46.465Z,49.75
2023-04-03T00:08:46.434Z,48.80
2023-04-03T00:09:47.264Z,54.35
2023-04-03T00:10:46.439Z,51.79
2023-04-03T00:11:46.415Z,47.76
2023-04-03T00:12:46.424Z,47.14
2023-04-03T00:13:46.407Z,48.19
2023-04-03T00:14:46.371Z,46.44
2023-04-03T00:15:47.331Z,52.45
2023-04-03T00:16:46.439Z,53.45
2023-04-03T00:17:46.365Z,49.24
2023-04-03T00:18:46.354Z,46.86
2023-04-03T00:19:46.343Z,48.47
2023-04-03T00:20:46.538Z,51.47
2023-04-03T00:21:47.311Z,47.93
2023-04-03T00:22:46.338Z,47.64
2023-04-03T00:23:46.329Z,45.86
2023-04-03T00:24:46.294Z,44.75
2023-04-03T00:25:46.309Z,50.82
2023-04-03T00:26:46.303Z,45.05
2023-04-03T00:27:46.390Z,47.30
2023-04-03T00:28:46.335Z,48.51
2023-04-03T00:29:46.267Z,53.24
2023-04-03T00:30:46.315Z,49.76
2023-04-03T00:31:46.340Z,50.04
2023-04-03T00:32:46.289Z,51.91
2023-04-03T00:33:46.429Z,47.02
2023-04-03T00:34:46.218Z,52.10
2023-04-03T00:35:46.266Z,49.46
2023-04-03T00:36:46.276Z,53.01
2023-04-03T00:37:47.161Z,46.39
2023-04-03T00:38:46.198Z,46.48
2023-04-03T00:39:46.211Z,46.67
2023-04-03T00:40:46.149Z,60.68
2023-04-03T00:41:46.171Z,50.81
2023-04-03T00:42:46.179Z,52.84
2023-04-03T00:43:46.851Z,47.06
2023-04-03T00:44:46.201Z,47.31
2023-04-03T00:45:46.164Z,46.77
2023-04-03T00:46:46.140Z,45.64
2023-04-03T00:47:46.137Z,46.92
2023-04-03T00:48:46.125Z,50.41
2023-04-03T00:49:46.125Z,47.00
2023-04-03T00:50:46.207Z,51.47
2023-04-03T00:51:47.070Z,46.67
2023-04-03T00:52:46.068Z,46.08
2023-04-03T00:53:46.087Z,45.69
2023-04-03T00:54:46.047Z,46.49
2023-04-03T00:55:46.081Z,51.27
2023-04-03T00:56:46.065Z,51.41
2023-04-03T00:57:46.048Z,51.24
2023-04-03T00:58:46.056Z,46.00
2023-04-03T00:59:46.001Z,50.37
2023-04-03T01:00:46.828Z,46.49
2023-04-03T01:01:47.028Z,51.37
2023-04-03T01:02:46.062Z,47.04
2023-04-03T01:03:46.007Z,46.69
2023-04-03T01:04:45.999Z,45.22
2023-04-03T01:05:46.755Z,50.67
2023-04-03T01:06:46.001Z,46.15
2023-04-03T01:07:45.969Z,51.80
2023-04-03T01:08:45.960Z,46.24
2023-04-03T01:09:45.929Z,57.40
2023-04-03T01:10:47.025Z,45.69
2023-04-03T01:11:46.880Z,45.75
2023-04-03T01:12:47.004Z,59.98
2023-04-03T01:13:45.981Z,46.69
2023-04-03T01:14:45.924Z,47.53
2023-04-03T01:15:45.970Z,49.43
2023-04-03T01:16:45.904Z,45.48
2023-04-03T01:17:45.909Z,44.82
2023-04-03T01:18:46.868Z,45.39
2023-04-03T01:19:45.892Z,45.21
2023-04-03T01:20:45.873Z,46.17
2023-04-03T01:21:45.866Z,44.84
2023-04-03T01:22:45.920Z,44.83
2023-04-03T01:23:45.903Z,46.14
2023-04-03T01:24:45.864Z,53.33
2023-04-03T01:25:45.821Z,48.38
2023-04-03T01:26:45.832Z,52.94
2023-04-03T01:27:45.817Z,49.96
2023-04-03T01:28:46.007Z,45.21
2023-04-03T01:29:45.773Z,45.07
2023-04-03T01:30:45.774Z,45.17
2023-04-03T01:31:45.814Z,45.90
2023-04-03T01:32:45.832Z,45.50
2023-04-03T01:33:46.756Z,46.00
2023-04-03T01:34:45.774Z,45.94
2023-04-03T01:35:45.794Z,49.64
2023-04-03T01:36:45.733Z,45.09
2023-04-03T01:37:45.722Z,46.96
2023-04-03T01:38:45.786Z,53.88
2023-04-03T01:39:45.938Z,45.51
2023-04-03T01:40:45.705Z,54.21
2023-04-03T01:41:45.726Z,47.54
2023-04-03T01:42:45.719Z,47.27
2023-04-03T01:43:45.741Z,47.58
2023-04-03T01:44:45.666Z,46.32
2023-04-03T01:45:45.715Z,45.76
2023-04-03T01:46:45.688Z,47.01
2023-04-03T01:47:45.718Z,46.18
2023-04-03T01:48:45.662Z,46.49
2023-04-03T01:49:45.667Z,46.13
2023-04-03T01:50:45.634Z,50.44
2023-04-03T01:51:45.679Z,60.57
2023-04-03T01:52:45.633Z,47.99
2023-04-03T01:53:45.627Z,45.37
2023-04-03T01:54:45.645Z,50.88
2023-04-03T01:55:45.598Z,49.26
2023-04-03T01:56:45.612Z,52.42
2023-04-03T01:57:45.607Z,60.42
2023-04-03T01:58:45.606Z,48.16
2023-04-03T01:59:45.604Z,50.32
2023-04-03T02:00:45.603Z,51.09
2023-04-03T02:01:46.228Z,50.41
2023-04-03T02:02:45.592Z,47.79
2023-04-03T02:03:45.633Z,54.54
2023-04-03T02:04:45.591Z,45.73
2023-04-03T02:05:45.563Z,45.30
2023-04-03T02:06:45.518Z,51.47
2023-04-03T02:07:45.523Z,49.74
2023-04-03T02:08:45.541Z,52.13
2023-04-03T02:09:45.514Z,46.69
2023-04-03T02:10:45.800Z,45.44
2023-04-03T02:11:45.521Z,45.27
2023-04-03T02:12:45.451Z,45.27
2023-04-03T02:13:45.473Z,48.41
2023-04-03T02:14:46.390Z,51.59
2023-04-03T02:15:45.474Z,46.90
2023-04-03T02:16:45.481Z,53.60
2023-04-03T02:17:45.456Z,46.01
2023-04-03T02:18:45.410Z,48.45
2023-04-03T02:19:45.521Z,52.68
2023-04-03T02:20:45.409Z,52.11
2023-04-03T02:21:45.407Z,51.03
2023-04-03T02:22:45.423Z,55.37
2023-04-03T02:23:45.376Z,47.47
2023-04-03T02:24:45.867Z,44.71
2023-04-03T02:25:45.355Z,45.40
2023-04-03T02:26:45.372Z,47.08
2023-04-03T02:27:45.344Z,53.37
2023-04-03T02:28:45.333Z,52.24
2023-04-03T02:29:46.625Z,51.35
2023-04-03T02:30:45.420Z,45.79
2023-04-03T02:31:45.333Z,45.94
2023-04-03T02:32:45.349Z,45.54
2023-04-03T02:33:45.353Z,45.64
2023-04-03T02:34:45.317Z,46.01
2023-04-03T02:35:45.342Z,46.05
2023-04-03T02:36:46.265Z,45.63
2023-04-03T02:37:45.296Z,52.86
2023-04-03T02:38:45.300Z,51.40
2023-04-03T02:39:45.278Z,58.57
2023-04-03T02:40:45.247Z,47.38
2023-04-03T02:41:45.235Z,46.51
2023-04-03T02:42:45.827Z,52.59
2023-04-03T02:43:45.253Z,57.07
2023-04-03T02:44:45.253Z,48.20
2023-04-03T02:45:45.253Z,51.43
2023-04-03T02:46:45.337Z,55.38
2023-04-03T02:47:45.393Z,57.25
2023-04-03T02:48:45.191Z,49.81
2023-04-03T02:49:45.181Z,51.95
2023-04-03T02:50:45.165Z,50.24
2023-04-03T02:51:45.168Z,48.19
2023-04-03T02:52:45.829Z,55.34
2023-04-03T02:53:45.190Z,55.60
2023-04-03T02:54:45.214Z,55.16
2023-04-03T02:55:45.144Z,48.45
2023-04-03T02:56:45.144Z,58.41
2023-04-03T02:57:45.129Z,47.76
2023-04-03T02:58:45.158Z,59.27
2023-04-03T02:59:45.128Z,60.53
2023-04-03T03:00:45.081Z,55.24
2023-04-03T03:01:45.161Z,52.07
2023-04-03T03:02:45.161Z,61.89
2023-04-03T03:03:45.078Z,59.79
2023-04-03T03:04:45.427Z,60.99
2023-04-03T03:05:45.063Z,60.12
2023-04-03T03:06:45.855Z,54.91
2023-04-03T03:07:45.045Z,53.45
2023-04-03T03:08:45.052Z,57.27
2023-04-03T03:09:45.399Z,60.35
2023-04-03T03:10:45.024Z,53.70
2023-04-03T03:11:45.055Z,58.73
2023-04-03T03:12:44.977Z,55.50
2023-04-03T03:13:45.014Z,55.24
2023-04-03T03:14:45.132Z,60.86
2023-04-03T03:15:45.003Z,56.43
2023-04-03T03:16:44.980Z,60.70
2023-04-03T03:17:45.037Z,62.30
2023-04-03T03:18:44.958Z,58.05
2023-04-03T03:19:44.935Z,63.34
2023-04-03T03:20:46.785Z,57.54
2023-04-03T03:21:44.917Z,53.40
2023-04-03T03:22:44.943Z,57.31
2023-04-03T03:23:44.931Z,59.13
2023-04-03T03:24:45.963Z,58.78
2023-04-03T03:25:45.235Z,61.86
2023-04-03T03:26:44.876Z,57.05
2023-04-03T03:27:45.007Z,55.47
2023-04-03T03:28:44.894Z,64.58
2023-04-03T03:29:44.847Z,59.70
2023-04-03T03:30:44.865Z,63.03
2023-04-03T03:31:44.875Z,62.49
2023-04-03T03:32:45.016Z,67.39
2023-04-03T03:33:44.843Z,57.45
2023-04-03T03:34:44.810Z,64.42
2023-04-03T03:35:45.821Z,66.58
2023-04-03T03:36:44.803Z,68.86
2023-04-03T03:37:45.870Z,64.64
2023-04-03T03:38:45.811Z,68.08
2023-04-03T03:39:44.946Z,62.08
2023-04-03T03:40:44.798Z,62.09
2023-04-03T03:41:44.777Z,67.64
2023-04-03T03:42:44.952Z,59.50
2023-04-03T03:43:44.805Z,63.38
2023-04-03T03:44:44.756Z,70.19
2023-04-03T03:45:44.741Z,60.90
2023-04-03T03:46:44.869Z,61.79
2023-04-03T04:03:56.634Z,61.27
2023-04-03T04:04:56.493Z,65.91
2023-04-03T04:05:56.539Z,62.68
2023-04-03T04:06:57.123Z,63.07
2023-04-03T04:07:57.619Z,60.25
2023-04-03T04:08:57.628Z,60.02
2023-04-03T04:09:57.643Z,61.07
2023-04-03T04:10:58.724Z,67.04
2023-04-03T04:11:57.610Z,66.58
2023-04-03T04:12:58.644Z,64.00
2023-04-03T04:13:58.668Z,64.79
2023-04-03T04:14:57.584Z,64.80
2023-04-03T04:15:57.730Z,67.67
2023-04-03T04:16:57.725Z,59.86
2023-04-03T04:17:57.634Z,66.36
2023-04-03T04:18:57.565Z,70.17
2023-04-03T04:19:57.562Z,63.33
2023-04-03T04:20:57.622Z,58.42
2023-04-03T04:21:58.262Z,72.84
2023-04-03T04:22:57.550Z,59.25
2023-04-03T04:23:57.531Z,50.67
2023-04-03T04:24:57.520Z,71.28
2023-04-03T04:25:58.190Z,67.03
2023-04-03T04:26:58.502Z,66.45
2023-04-03T04:27:57.481Z,70.60
2023-04-03T04:28:58.309Z,65.61
2023-04-03T04:29:59.260Z,66.33
2023-04-03T04:30:58.481Z,61.73
2023-04-03T04:31:57.564Z,70.97
2023-04-03T04:32:57.567Z,66.48
2023-04-03T04:33:57.441Z,60.75
2023-04-03T04:34:57.503Z,68.56
2023-04-03T04:35:57.497Z,65.63
2023-04-03T04:36:57.493Z,64.31
2023-04-03T04:37:57.415Z,66.16
2023-04-03T04:38:57.481Z,68.05
2023-04-03T04:39:57.609Z,71.54
2023-04-03T04:40:57.403Z,66.66
2023-04-03T04:41:57.378Z,65.10
2023-04-03T04:42:57.386Z,72.13
2023-04-03T04:43:57.364Z,69.67
2023-04-03T04:44:57.375Z,69.99
2023-04-03T04:45:57.436Z,67.30
2023-04-03T04:46:57.382Z,68.53
2023-04-03T04:47:57.464Z,65.87
2023-04-03T04:48:57.345Z,68.33
2023-04-03T04:49:57.783Z,69.92
2023-04-03T04:50:58.110Z,66.50
2023-04-03T04:51:57.379Z,66.24
2023-04-03T04:52:57.304Z,69.67
2023-04-03T04:53:57.292Z,69.95
2023-04-03T04:54:57.302Z,66.01
2023-04-03T04:55:57.303Z,66.44
2023-04-03T04:56:57.402Z,69.35
2023-04-03T04:57:57.274Z,65.48
2023-04-03T04:58:57.241Z,71.69
2023-04-03T04:59:58.249Z,69.69
2023-04-03T05:00:57.233Z,64.17
2023-04-03T05:01:58.219Z,62.10
2023-04-03T05:02:57.238Z,72.23
2023-04-03T05:03:57.231Z,71.98
2023-04-03T05:04:57.225Z,67.28
2023-04-03T05:05:57.214Z,67.13
2023-04-03T05:06:57.273Z,71.21
2023-04-03T05:07:57.231Z,68.72
2023-04-03T05:08:57.195Z,64.85
2023-04-03T05:09:57.211Z,67.87
2023-04-03T05:10:57.175Z,68.85
2023-04-03T05:11:58.131Z,68.82
2023-04-03T05:12:57.158Z,69.78
2023-04-03T05:13:58.144Z,70.03
2023-04-03T05:14:57.164Z,68.91
2023-04-03T05:15:57.159Z,72.91
2023-04-03T05:16:57.140Z,65.54
2023-04-03T05:17:57.354Z,70.12
2023-04-03T05:18:57.157Z,68.15
2023-04-03T05:19:57.093Z,69.34
2023-04-03T05:20:57.157Z,70.92
2023-04-03T05:21:57.146Z,67.03
2023-04-03T05:22:57.224Z,69.82
2023-04-03T05:23:57.157Z,72.11
2023-04-03T05:24:57.119Z,66.77
2023-04-03T05:25:57.083Z,67.75
2023-04-03T05:26:57.048Z,68.20
2023-04-03T05:27:57.060Z,69.35
2023-04-03T05:28:57.068Z,64.64
2023-04-03T05:29:57.164Z,67.91
2023-04-03T05:30:57.041Z,69.59
2023-04-03T05:31:57.032Z,69.98
2023-04-03T05:32:57.865Z,73.21
2023-04-03T05:33:57.084Z,66.92
2023-04-03T05:34:57.957Z,68.47
2023-04-03T05:35:57.108Z,66.43
2023-04-03T05:36:57.004Z,68.95
2023-04-03T05:37:56.985Z,70.49
2023-04-03T05:38:56.962Z,67.83
2023-04-03T05:39:57.634Z,67.41
2023-04-03T05:40:56.956Z,70.37
2023-04-03T05:41:56.959Z,61.17
2023-04-03T05:42:56.987Z,67.11
2023-04-03T05:43:57.724Z,67.56
2023-04-03T05:44:56.915Z,72.03
2023-04-03T05:45:57.254Z,70.24
2023-04-03T05:46:56.970Z,73.30
2023-04-03T05:47:56.951Z,70.24
2023-04-03T05:48:56.909Z,67.83
2023-04-03T05:49:56.919Z,71.89
2023-04-03T05:50:57.266Z,68.73
2023-04-03T05:51:56.932Z,68.50
2023-04-03T05:52:57.705Z,68.49
2023-04-03T05:53:57.857Z,69.53
2023-04-03T05:54:56.901Z,69.07
2023-04-03T05:55:56.849Z,65.14
2023-04-03T05:56:56.883Z,64.42
2023-04-03T05:57:56.812Z,73.21
2023-04-03T05:58:56.836Z,68.22
2023-04-03T05:59:56.799Z,71.96
2023-04-03T06:00:56.791Z,68.81
2023-04-03T06:01:56.842Z,65.15
2023-04-03T06:02:57.439Z,69.89
2023-04-03T06:03:56.915Z,60.73
2023-04-03T06:04:56.968Z,68.98
2023-04-03T06:05:56.762Z,66.14
2023-04-03T06:06:56.766Z,70.41
2023-04-03T06:07:56.796Z,70.04
2023-04-03T06:08:56.731Z,70.52
2023-04-03T06:09:56.735Z,68.74
2023-04-03T06:10:56.728Z,73.66
2023-04-03T06:11:56.825Z,68.13
2023-04-03T06:12:56.737Z,72.02
2023-04-03T06:13:56.753Z,67.26
2023-04-03T06:14:56.725Z,69.54
2023-04-03T06:15:56.680Z,70.05
2023-04-03T06:16:56.739Z,68.42
2023-04-03T06:17:56.753Z,61.87
2023-04-03T06:18:56.686Z,67.95
2023-04-03T06:19:56.695Z,68.73
2023-04-03T06:20:56.795Z,58.52
2023-04-03T06:21:56.643Z,71.18
2023-04-03T06:22:56.647Z,66.65
2023-04-03T06:23:56.655Z,66.89
2023-04-03T06:24:56.645Z,69.75
2023-04-03T06:25:56.661Z,67.86
2023-04-03T06:26:56.605Z,66.20
2023-04-03T06:27:56.673Z,65.19
2023-04-03T06:28:56.638Z,64.76
2023-04-03T06:29:56.637Z,66.89
2023-04-03T06:30:57.320Z,69.84
2023-04-03T06:31:56.594Z,68.28
2023-04-03T06:32:56.675Z,65.19
2023-04-03T06:33:56.558Z,68.16
2023-04-03T06:34:56.589Z,63.48
2023-04-03T06:35:56.629Z,68.49
2023-04-03T06:36:56.562Z,68.64
2023-04-03T06:37:56.588Z,65.89
2023-04-03T06:38:56.544Z,69.84
2023-04-03T06:39:56.527Z,61.40
2023-04-03T06:40:56.698Z,70.39
2023-04-03T06:41:56.512Z,70.36
2023-04-03T06:42:56.528Z,69.86
2023-04-03T06:43:56.487Z,68.79
2023-04-03T06:44:56.472Z,72.29
2023-04-03T06:45:56.499Z,69.40
2023-04-03T06:46:56.537Z,67.21
2023-04-03T06:47:56.539Z,68.32
2023-04-03T06:48:56.611Z,67.87
2023-04-03T06:49:56.484Z,67.66
2023-04-03T06:50:56.477Z,66.90
2023-04-03T06:51:56.471Z,69.82
2023-04-03T06:52:56.470Z,66.73
2023-04-03T06:53:56.458Z,67.28
2023-04-03T06:54:56.451Z,62.83
2023-04-03T06:55:56.419Z,70.40
2023-04-03T06:56:56.436Z,70.65
2023-04-03T06:57:56.381Z,69.59
2023-04-03T06:58:57.269Z,64.67
2023-04-03T06:59:56.426Z,68.49
2023-04-03T07:00:56.392Z,63.48
2023-04-03T07:01:56.488Z,72.11
2023-04-03T07:02:56.412Z,67.43
2023-04-03T07:03:56.415Z,66.37
2023-04-03T07:04:56.437Z,70.09
2023-04-03T07:05:56.359Z,66.14
2023-04-03T07:06:56.328Z,67.17
2023-04-03T07:07:56.357Z,68.72
2023-04-03T07:08:56.333Z,71.09
2023-04-03T07:09:56.278Z,69.85
2023-04-03T07:10:56.369Z,64.52
2023-04-03T07:11:56.328Z,70.04
2023-04-03T07:12:56.274Z,65.63
2023-04-03T07:13:56.309Z,65.06
2023-04-03T07:14:56.284Z,63.95
2023-04-03T07:15:56.273Z,63.75
2023-04-03T07:16:56.312Z,67.30
2023-04-03T07:17:56.301Z,68.10
2023-04-03T07:18:56.248Z,61.45
2023-04-03T07:19:56.208Z,64.93
2023-04-03T07:20:56.213Z,69.46
2023-04-03T07:21:57.063Z,68.88
2023-04-03T07:22:56.283Z,66.15
2023-04-03T07:23:56.221Z,65.62
2023-04-03T07:24:56.164Z,71.11
2023-04-03T07:25:56.159Z,67.09
2023-04-03T07:26:56.230Z,67.18
2023-04-03T07:27:56.200Z,70.16
2023-04-03T07:28:56.180Z,66.60
2023-04-03T07:29:56.627Z,67.02
2023-04-03T07:30:56.173Z,64.78
2023-04-03T07:31:56.706Z,65.66
2023-04-03T07:32:56.184Z,68.65
2023-04-03T07:33:56.221Z,62.15
2023-04-03T07:34:57.131Z,69.36
2023-04-03T07:35:56.172Z,70.06
2023-04-03T07:36:56.102Z,68.34
2023-04-03T07:37:56.120Z,60.82
2023-04-03T07:38:56.151Z,67.52
2023-04-03T07:39:56.079Z,69.36
2023-04-03T07:40:56.062Z,68.78
2023-04-03T07:41:56.777Z,67.94
2023-04-03T07:42:56.082Z,67.64
2023-04-03T07:43:56.057Z,68.70
2023-04-03T07:44:56.784Z,68.33
2023-04-03T07:45:56.079Z,63.98
2023-04-03T07:46:56.770Z,67.15
2023-04-03T07:47:56.065Z,63.30
2023-04-03T07:48:57.419Z,70.70
2023-04-03T07:49:56.107Z,64.82
2023-04-03T07:50:56.021Z,69.84
2023-04-03T07:51:55.976Z,69.33
2023-04-03T07:53:28.692Z,64.47
2023-04-03T07:53:55.971Z,60.22
2023-04-03T07:54:56.814Z,65.94
2023-04-03T07:55:55.971Z,72.07
2023-04-03T07:56:56.077Z,70.26
2023-04-03T07:57:56.756Z,66.84
2023-04-03T07:58:55.953Z,64.18
2023-04-03T07:59:56.742Z,67.16
2023-04-03T08:00:55.979Z,64.04
2023-04-03T08:01:55.930Z,69.84
2023-04-03T08:02:56.215Z,67.39
2023-04-03T08:03:55.983Z,67.54
2023-04-03T08:04:55.985Z,63.50
2023-04-03T08:05:56.815Z,69.94
2023-04-03T08:06:56.690Z,71.92
2023-04-03T08:07:55.878Z,66.89
2023-04-03T08:08:55.856Z,66.41
2023-04-03T08:09:55.851Z,68.90
2023-04-03T08:10:55.868Z,63.54
2023-04-03T08:11:55.867Z,64.18
2023-04-03T08:12:55.828Z,71.39
2023-04-03T08:13:55.861Z,63.37
2023-04-03T08:14:55.826Z,64.82
2023-04-03T08:15:55.789Z,70.86
2023-04-03T08:16:55.904Z,68.34
2023-04-03T08:17:55.956Z,66.67
2023-04-03T08:18:55.791Z,68.12
2023-04-03T08:19:55.798Z,63.26
2023-04-03T08:20:55.762Z,70.90
2023-04-03T08:21:55.804Z,65.85
2023-04-03T08:22:56.064Z,70.47
2023-04-03T08:23:55.744Z,66.23
2023-04-03T08:24:59.532Z,69.02
2023-04-03T08:25:56.710Z,65.57
2023-04-03T08:26:55.805Z,64.48
2023-04-03T08:27:56.638Z,68.99
2023-04-03T08:28:55.700Z,65.30
2023-04-03T08:29:55.697Z,66.15
2023-04-03T08:30:55.683Z,70.95
2023-04-03T08:31:56.296Z,71.78
2023-04-03T08:32:55.750Z,68.71
2023-04-03T08:33:55.694Z,69.61
2023-04-03T08:34:55.680Z,66.24
2023-04-03T08:35:55.699Z,69.05
2023-04-03T08:36:55.719Z,67.47
2023-04-03T08:37:55.680Z,65.15
2023-04-03T08:38:55.612Z,70.03
2023-04-03T08:39:55.644Z,66.03
2023-04-03T08:40:56.309Z,63.38
2023-04-03T08:41:55.635Z,69.28
2023-04-03T08:42:55.644Z,69.56
2023-04-03T08:43:55.612Z,63.39
2023-04-03T08:44:56.192Z,71.13
2023-04-03T08:45:55.694Z,66.79
2023-04-03T08:46:55.646Z,65.54
2023-04-03T08:47:56.568Z,67.15
2023-04-03T08:48:55.576Z,65.09
2023-04-03T08:49:55.623Z,69.27
2023-04-03T08:50:56.442Z,67.03
2023-04-03T08:51:55.547Z,67.13
2023-04-03T08:52:55.523Z,67.15
2023-04-03T08:53:55.517Z,66.33
2023-04-03T08:54:55.530Z,66.42
2023-04-03T08:55:56.206Z,65.46
2023-04-03T08:56:55.543Z,69.81
2023-04-03T08:57:55.517Z,65.54
2023-04-03T08:58:55.474Z,67.15
2023-04-03T08:59:55.474Z,66.24
2023-04-03T09:00:55.457Z,70.06
2023-04-03T09:01:55.455Z,59.15
2023-04-03T09:02:55.553Z,69.36
2023-04-03T09:03:55.452Z,70.00
2023-04-03T09:04:55.461Z,66.49
2023-04-03T09:05:55.440Z,67.45
2023-04-03T09:06:55.500Z,67.26
2023-04-03T09:07:55.419Z,69.54
2023-04-03T09:08:55.433Z,62.86
2023-04-03T09:09:55.389Z,66.70
2023-04-03T09:10:55.395Z,69.59
2023-04-03T09:11:55.356Z,68.63
2023-04-03T09:12:56.199Z,71.26
2023-04-03T09:13:55.431Z,67.96
2023-04-03T09:14:55.404Z,59.38
2023-04-03T09:15:55.373Z,71.31
2023-04-03T09:16:55.392Z,66.75
2023-04-03T09:17:55.379Z,64.91
2023-04-03T09:18:56.304Z,66.56
2023-04-03T09:19:55.300Z,63.82
2023-04-03T09:20:55.360Z,68.81
2023-04-03T09:21:55.303Z,68.12
2023-04-03T09:22:55.386Z,69.13
2023-04-03T09:23:56.155Z,68.40
2023-04-03T09:24:55.261Z,69.61
2023-04-03T09:25:55.296Z,69.13
2023-04-03T09:26:55.259Z,71.80
2023-04-03T09:27:55.313Z,68.22
2023-04-03T09:28:55.297Z,70.03
2023-04-03T09:29:55.231Z,66.44
2023-04-03T09:30:55.328Z,66.79
2023-04-03T09:31:55.273Z,69.47
2023-04-03T09:32:55.253Z,66.40
2023-04-03T09:33:55.253Z,68.11
2023-04-03T09:34:55.608Z,68.29
2023-04-03T09:35:55.228Z,69.86
2023-04-03T09:36:55.257Z,68.07
2023-04-03T09:37:55.169Z,72.20
2023-04-03T09:38:55.257Z,67.35
2023-04-03T09:39:55.139Z,69.53
2023-04-03T09:40:55.336Z,68.12
2023-04-03T09:41:55.144Z,71.42
2023-04-03T09:43:01.342Z,68.72
2023-04-03T09:43:57.168Z,70.26
2023-04-03T09:44:55.123Z,69.66
2023-04-03T09:45:55.123Z,67.02
2023-04-03T09:46:55.859Z,64.51
2023-04-03T09:47:55.223Z,67.25
2023-04-03T09:49:05.146Z,66.83
2023-04-03T09:49:57.071Z,68.31
2023-04-03T09:50:55.109Z,68.95
2023-04-03T09:51:55.631Z,66.77
2023-04-03T09:52:55.050Z,68.89
2023-04-03T09:53:55.828Z,65.77
2023-04-03T09:54:55.117Z,69.95
2023-04-03T09:55:55.028Z,68.04
2023-04-03T09:56:55.064Z,68.71
2023-04-03T09:57:55.029Z,70.38
2023-04-03T09:58:55.041Z,66.97
2023-04-03T09:59:55.125Z,68.63
2023-04-03T10:00:55.028Z,66.95
2023-04-03T10:01:54.993Z,70.62
2023-04-03T10:02:55.002Z,66.86
2023-04-03T10:03:55.082Z,67.60
2023-04-03T10:05:08.410Z,67.71
2023-04-03T10:05:56.973Z,65.36
2023-04-03T10:06:54.962Z,65.38
2023-04-03T10:08:03.429Z,69.30
2023-04-03T10:08:57.871Z,70.02
2023-04-03T10:09:54.926Z,63.55
2023-04-03T10:10:54.999Z,67.32
2023-04-03T10:11:54.904Z,68.40
2023-04-03T10:12:54.959Z,64.75
2023-04-03T10:13:54.933Z,65.40
2023-04-03T10:14:55.825Z,70.03
2023-04-03T10:15:54.873Z,70.78
2023-04-03T10:16:54.930Z,68.84
2023-04-03T10:17:54.921Z,68.75
2023-04-03T10:18:54.878Z,69.40
2023-04-03T10:19:54.872Z,67.49
2023-04-03T10:20:54.855Z,67.88
2023-04-03T10:21:55.795Z,67.20
2023-04-03T10:22:54.835Z,69.55
2023-04-03T10:23:54.841Z,66.03
2023-04-03T10:24:54.800Z,67.00
2023-04-03T10:25:54.833Z,69.00
2023-04-03T10:26:55.626Z,67.62
2023-04-03T10:27:54.779Z,63.84
2023-04-03T10:28:54.781Z,68.65
2023-04-03T10:29:55.372Z,67.96
2023-04-03T10:30:54.857Z,69.49
2023-04-03T10:31:55.311Z,68.44
2023-04-03T10:32:54.766Z,66.36
2023-04-03T10:33:54.747Z,67.80
2023-04-03T10:35:02.685Z,63.02
2023-04-03T10:35:57.683Z,64.93
2023-04-03T10:36:55.212Z,69.46
2023-04-03T10:37:54.703Z,66.32
2023-04-03T10:38:54.687Z,67.83
2023-04-03T10:39:54.706Z,66.45
2023-04-03T10:40:55.306Z,65.68
2023-04-03T10:42:05.554Z,69.95
2023-04-03T10:42:57.384Z,62.87
2023-04-03T10:43:54.654Z,64.10
2023-04-03T10:44:54.675Z,68.12
2023-04-03T10:45:54.700Z,67.93
2023-04-03T10:46:55.659Z,64.68
2023-04-03T10:47:54.725Z,69.74
2023-04-03T10:48:54.772Z,63.17
2023-04-03T10:49:59.983Z,67.53
2023-04-03T10:50:56.277Z,72.10
2023-04-03T10:51:54.617Z,64.87
2023-04-03T10:52:55.669Z,61.13
2023-04-03T10:53:54.619Z,63.80
2023-04-03T10:54:54.636Z,70.74
2023-04-03T10:55:54.618Z,63.23
2023-04-03T10:57:04.431Z,70.91
2023-04-03T10:57:56.705Z,68.93
2023-04-03T10:58:54.634Z,69.04
2023-04-03T10:59:55.350Z,69.45
2023-04-03T11:00:54.570Z,63.12
2023-04-03T11:01:54.581Z,67.31
2023-04-03T11:02:54.722Z,60.01
2023-04-03T11:03:54.633Z,67.51
2023-04-03T11:04:54.809Z,67.80
2023-04-03T11:05:54.535Z,68.93
2023-04-03T11:06:54.506Z,67.61
2023-04-03T11:07:54.482Z,66.31
2023-04-03T11:08:55.503Z,69.22
2023-04-03T11:09:54.496Z,68.44
2023-04-03T11:10:54.676Z,66.51
2023-04-03T11:11:54.544Z,70.06
2023-04-03T11:12:54.469Z,69.11
2023-04-03T11:13:54.415Z,70.15
2023-04-03T11:14:55.535Z,68.11
2023-04-03T11:15:54.494Z,66.43
2023-04-03T11:16:54.785Z,66.67
2023-04-03T11:17:54.617Z,66.65
2023-04-03T11:18:54.401Z,65.42
2023-04-03T11:19:54.386Z,67.55
2023-04-03T11:20:54.401Z,67.15
2023-04-03T11:21:54.468Z,67.81
2023-04-03T11:22:54.439Z,67.47
2023-04-03T11:23:54.380Z,69.06
2023-04-03T11:24:54.366Z,65.62
2023-04-03T11:25:54.345Z,65.79
2023-04-03T11:26:54.341Z,62.07
2023-04-03T11:27:54.872Z,72.98
2023-04-03T11:28:54.390Z,66.01
2023-04-03T11:29:54.309Z,65.27
2023-04-03T11:30:55.709Z,67.99
2023-04-03T11:31:54.403Z,68.93
2023-04-03T11:32:55.261Z,69.51
2023-04-03T11:33:54.311Z,64.54
2023-04-03T11:34:54.282Z,67.89
2023-04-03T11:35:54.308Z,66.46
2023-04-03T11:36:54.295Z,67.14
2023-04-03T11:37:54.338Z,65.98
2023-04-03T11:38:54.801Z,67.64
2023-04-03T11:39:54.247Z,71.06
2023-04-03T11:40:54.246Z,68.13
2023-04-03T11:42:06.669Z,68.26
2023-04-03T11:42:56.238Z,61.70
2023-04-03T11:43:54.221Z,65.02
2023-04-03T11:44:54.231Z,70.26
2023-04-03T11:45:54.400Z,68.62
2023-04-03T11:46:57.041Z,67.15
2023-04-03T11:47:55.302Z,64.91
2023-04-03T11:48:54.253Z,66.60
2023-04-03T11:49:54.261Z,69.41
2023-04-03T11:50:54.396Z,67.83
2023-04-03T11:51:54.833Z,68.26
2023-04-03T11:52:54.150Z,67.84
2023-04-03T11:53:54.135Z,66.85
2023-04-03T11:54:54.136Z,67.68
2023-04-03T11:55:54.260Z,67.92
2023-04-03T11:56:54.125Z,65.61
2023-04-03T11:57:54.143Z,67.25
2023-04-03T11:58:54.198Z,66.90
2023-04-03T11:59:54.164Z,68.41
2023-04-03T12:00:54.719Z,63.22
2023-04-03T12:01:54.229Z,67.25
2023-04-03T12:02:54.973Z,65.76
2023-04-03T12:03:55.233Z,67.89
2023-04-03T12:04:54.087Z,68.27
2023-04-03T12:05:54.072Z,59.91
2023-04-03T12:06:54.065Z,66.34
2023-04-03T12:07:54.264Z,66.47
2023-04-03T12:08:54.834Z,68.95
2023-04-03T12:09:54.013Z,68.97
2023-04-03T12:10:54.295Z,68.27
2023-04-03T12:11:54.040Z,68.27
2023-04-03T12:12:54.026Z,66.85
2023-04-03T12:13:54.858Z,56.65
2023-04-03T12:14:53.969Z,68.76
2023-04-03T12:15:53.965Z,68.19
2023-04-03T12:16:55.029Z,63.75
2023-04-03T12:17:54.195Z,68.90
2023-04-03T12:18:54.037Z,69.22
2023-04-03T12:19:53.940Z,68.15
2023-04-03T12:20:53.948Z,69.55
2023-04-03T12:21:53.959Z,61.93
2023-04-03T12:22:53.940Z,65.51
2023-04-03T12:23:54.908Z,65.79
2023-04-03T12:24:53.905Z,66.12
2023-04-03T12:25:53.868Z,66.81
2023-04-03T12:26:53.900Z,68.29
2023-04-03T12:27:53.892Z,67.23
2023-04-03T12:28:54.167Z,68.70
2023-04-03T12:29:53.890Z,65.59
2023-04-03T12:30:53.944Z,66.41
2023-04-03T12:31:53.884Z,68.29
2023-04-03T12:33:05.635Z,65.36
2023-04-03T12:33:55.813Z,68.03
2023-04-03T12:34:53.917Z,68.98
2023-04-03T12:35:53.895Z,66.23
2023-04-03T12:36:53.874Z,63.03
2023-04-03T12:37:53.823Z,67.12
2023-04-03T12:38:53.821Z,68.02
2023-04-03T12:39:53.760Z,67.76
2023-04-03T12:40:53.920Z,65.96
2023-04-03T12:41:53.813Z,66.95
2023-04-03T12:42:53.740Z,66.83
2023-04-03T12:43:53.756Z,68.86
2023-04-03T12:44:53.719Z,69.84
2023-04-03T12:45:54.348Z,65.02
2023-04-03T12:46:53.825Z,61.27
2023-04-03T12:47:53.791Z,70.48
2023-04-03T12:48:54.455Z,67.67
2023-04-03T12:49:53.718Z,68.41
2023-04-03T12:50:53.797Z,70.39
2023-04-03T12:51:54.335Z,68.99
2023-04-03T12:52:53.700Z,67.39
2023-04-03T12:53:53.795Z,63.82
2023-04-03T12:54:53.664Z,69.00
2023-04-03T12:55:53.671Z,68.48
2023-04-03T12:56:53.708Z,64.36
2023-04-03T12:57:53.689Z,70.05
2023-04-03T12:58:53.905Z,70.26
2023-04-03T12:59:53.671Z,66.80
2023-04-03T13:00:53.659Z,67.54
2023-04-03T13:01:53.657Z,63.93
2023-04-03T13:02:53.681Z,68.56
2023-04-03T13:03:54.347Z,63.86
2023-04-03T13:04:53.595Z,70.19
2023-04-03T13:05:53.590Z,69.54
2023-04-03T13:06:53.675Z,69.29
2023-04-03T13:07:54.227Z,69.99
2023-04-03T13:08:53.594Z,70.80